Terminal Aerodrome Forecast
Issued by NWS

Home | Current Version | Previous Version | Text Only | Print | Product List | Glossary On
Versions: 1 2 3 4 5 6 7 8 9 10 11 12 13 14 15 16 17 18 19 20 21 22 23 24 25 26
000
FTUS41 KBGM 231100
TAFITH
TAF
KITH 231136Z 2312/2412 15004KT P6SM OVC015
      TEMPO 2315/2317 OVC025
     FM231700 13005KT P6SM OVC025
     FM231900 14005KT P6SM SCT025 BKN040
     FM240500 VRB03KT 3SM BR BKN015=

USA.gov is the U.S. government's official web portal to all federal, state and local government web resources and services.